Time;durP1;ratioP1;P1;durP2;ratioP2;P2;SDS_P1;SDS_P2;PMS_P1;PMS_P2;Temp;Humidity;BMP_temperature;BMP_pressure;BME280_temperature;BME280_humidity;BME280_pressure;Samples;Min_cycle;Max_cycle;Signal;HPM_P1;HPM_P2
2024/02/22 00:01:13;;;;;;;2.72;0.85;;;11.50;91.30;;;;;;5032477;28;20029;-63
2024/02/22 00:03:39;;;;;;;0.90;0.70;;;11.50;91.20;;;;;;5032477;28;20536;-63
2024/02/22 00:06:05;;;;;;;1.27;1.00;;;11.50;91.20;;;;;;5031598;28;20112;-66
2024/02/22 00:08:31;;;;;;;1.13;1.02;;;11.50;91.20;;;;;;5029682;28;20041;-66
2024/02/22 00:10:58;;;;;;;0.70;0.68;;;11.50;91.30;;;;;;5036910;28;20025;-66
2024/02/22 00:13:24;;;;;;;0.77;0.40;;;11.50;91.30;;;;;;5040316;28;20017;-66
2024/02/22 00:15:51;;;;;;;0.70;0.70;;;11.60;91.30;;;;;;5034345;28;20088;-66
2024/02/22 00:18:17;;;;;;;1.17;1.00;;;11.60;91.20;;;;;;5033672;28;20038;-66
2024/02/22 00:20:44;;;;;;;0.90;0.77;;;11.60;91.20;;;;;;5034602;28;20030;-66
2024/02/22 00:23:10;;;;;;;0.70;0.70;;;11.60;91.30;;;;;;5034131;28;20069;-66
2024/02/22 00:25:36;;;;;;;1.25;0.93;;;11.60;91.30;;;;;;5030348;28;20025;-66
2024/02/22 00:28:02;;;;;;;0.82;0.80;;;11.60;91.30;;;;;;5041912;28;20063;-66
2024/02/22 00:30:28;;;;;;;1.38;0.88;;;11.60;91.20;;;;;;5034238;28;20396;-66
2024/02/22 00:32:54;;;;;;;1.20;0.88;;;11.70;91.20;;;;;;5034078;28;20114;-66
2024/02/22 00:35:20;;;;;;;1.25;0.98;;;11.70;91.20;;;;;;5042822;28;20431;-66
2024/02/22 00:37:45;;;;;;;2.33;1.10;;;11.70;91.30;;;;;;5034287;28;20034;-66
2024/02/22 00:40:14;;;;;;;1.35;1.08;;;11.70;91.30;;;;;;5033902;28;20125;-66
2024/02/22 00:42:44;;;;;;;1.70;1.13;;;11.70;91.30;;;;;;5033232;28;20029;-66
2024/02/22 00:45:11;;;;;;;1.73;1.00;;;11.70;91.60;;;;;;5031968;28;20099;-63
2024/02/22 00:47:37;;;;;;;1.52;1.17;;;11.70;91.30;;;;;;5032350;28;20025;-62
2024/02/22 00:50:04;;;;;;;1.23;1.00;;;11.70;91.30;;;;;;5035816;28;20033;-62
2024/02/22 00:52:30;;;;;;;1.02;0.68;;;11.70;91.40;;;;;;5031987;28;20025;-63
2024/02/22 00:54:56;;;;;;;1.65;0.90;;;11.70;91.40;;;;;;5032197;28;20038;-63
2024/02/22 00:57:22;;;;;;;1.60;1.20;;;11.80;91.40;;;;;;5030521;28;20144;-63
2024/02/22 00:59:48;;;;;;;1.48;1.10;;;11.70;91.50;;;;;;5010150;28;20481;-62
2024/02/22 01:02:14;;;;;;;2.08;1.25;;;11.70;91.50;;;;;;5031695;28;20025;-63
2024/02/22 01:04:40;;;;;;;1.33;0.90;;;11.80;91.60;;;;;;5027254;28;20068;-63
2024/02/22 01:07:06;;;;;;;1.10;0.88;;;11.80;91.60;;;;;;5032283;28;20045;-63
2024/02/22 01:09:32;;;;;;;0.85;0.80;;;11.80;91.60;;;;;;5034266;28;20108;-63
2024/02/22 01:11:58;;;;;;;1.42;1.10;;;11.80;91.50;;;;;;5032001;28;20022;-62
2024/02/22 01:14:24;;;;;;;1.50;1.23;;;11.80;91.50;;;;;;5031971;28;20439;-62
2024/02/22 01:16:50;;;;;;;0.88;0.88;;;11.80;91.60;;;;;;5027427;28;20060;-63
2024/02/22 01:19:17;;;;;;;0.77;0.73;;;11.80;91.60;;;;;;5037822;28;20072;-62
2024/02/22 01:21:43;;;;;;;1.83;1.15;;;11.80;91.60;;;;;;5028640;28;20042;-66
2024/02/22 01:24:10;;;;;;;1.27;1.00;;;11.90;91.60;;;;;;5065202;28;20025;-66
2024/02/22 01:26:36;;;;;;;1.58;1.30;;;11.90;91.60;;;;;;5031728;28;20029;-66
2024/02/22 01:29:03;;;;;;;1.08;0.90;;;11.90;91.60;;;;;;5034903;28;20029;-66
2024/02/22 01:31:30;;;;;;;1.55;0.98;;;11.90;91.60;;;;;;5032916;28;20477;-66
2024/02/22 01:33:56;;;;;;;1.08;0.77;;;11.90;91.60;;;;;;5032082;28;20156;-66
2024/02/22 01:36:22;;;;;;;1.20;1.05;;;11.90;91.60;;;;;;5033450;28;20025;-66
2024/02/22 01:38:48;;;;;;;1.00;0.80;;;11.90;91.60;;;;;;5033257;28;20029;-66
2024/02/22 01:41:14;;;;;;;0.93;0.80;;;11.90;91.70;;;;;;5035365;28;20504;-66
2024/02/22 01:43:40;;;;;;;1.15;1.00;;;11.90;91.70;;;;;;5032785;28;20049;-66
2024/02/22 01:46:09;;;;;;;1.52;1.05;;;11.90;91.80;;;;;;5032655;28;20040;-66
2024/02/22 01:48:35;;;;;;;1.20;1.02;;;11.90;91.80;;;;;;5034380;28;20029;-66
2024/02/22 01:51:02;;;;;;;1.35;1.02;;;11.90;91.70;;;;;;5033627;28;20028;-66
2024/02/22 01:53:30;;;;;;;1.35;0.85;;;11.90;91.70;;;;;;5032641;28;20463;-66
2024/02/22 01:56:00;;;;;;;1.42;0.85;;;12.00;91.80;;;;;;5032336;28;20071;-66
2024/02/22 01:58:33;;;;;;;1.08;0.90;;;11.90;91.80;;;;;;5029978;28;20026;-66
2024/02/22 02:01:01;;;;;;;0.80;0.77;;;11.90;91.80;;;;;;5061153;28;20033;-66
2024/02/22 02:03:28;;;;;;;0.90;0.85;;;12.00;91.90;;;;;;5029665;28;20124;-66
2024/02/22 02:05:55;;;;;;;1.02;0.85;;;12.00;91.90;;;;;;5030541;28;20042;-66
2024/02/22 02:08:22;;;;;;;0.90;0.70;;;12.00;91.90;;;;;;5031434;28;20059;-66
2024/02/22 02:10:49;;;;;;;1.33;0.98;;;12.00;91.80;;;;;;5031929;28;20033;-66
2024/02/22 02:13:15;;;;;;;1.13;0.98;;;12.00;91.80;;;;;;5031711;28;20064;-66
2024/02/22 02:15:41;;;;;;;1.95;1.05;;;12.00;91.80;;;;;;5031325;28;20476;-66
2024/02/22 02:18:07;;;;;;;0.77;0.73;;;12.10;91.80;;;;;;5031091;28;20500;-66
2024/02/22 02:20:53;;;;;;;1.23;0.60;;;12.10;91.80;;;;;;5036875;28;20496;-66
2024/02/22 02:23:28;;;;;;;1.23;0.90;;;12.10;91.80;;;;;;5034437;28;20448;-66
2024/02/22 02:25:54;;;;;;;1.42;0.95;;;12.10;91.80;;;;;;5030965;28;20033;-64
2024/02/22 02:28:20;;;;;;;1.10;0.73;;;12.10;91.80;;;;;;5029705;28;20025;-63
2024/02/22 02:30:46;;;;;;;1.00;0.68;;;12.10;91.80;;;;;;5030024;28;20112;-63
2024/02/22 02:33:12;;;;;;;1.55;1.00;;;12.10;91.80;;;;;;5029333;28;20032;-63
2024/02/22 02:35:38;;;;;;;1.90;1.42;;;12.10;91.80;;;;;;5030150;28;20044;-63
2024/02/22 02:38:10;;;;;;;2.28;1.60;;;12.10;91.80;;;;;;5029352;28;20030;-63
2024/02/22 02:40:36;;;;;;;2.40;1.30;;;12.10;91.80;;;;;;5030374;28;20076;-63
2024/02/22 02:43:02;;;;;;;1.13;0.80;;;12.10;91.80;;;;;;5030854;28;20057;-63
2024/02/22 02:45:28;;;;;;;4.05;2.15;;;12.20;91.80;;;;;;5014744;28;20052;-63
2024/02/22 02:47:54;;;;;;;1.77;1.50;;;12.20;91.80;;;;;;5015858;28;20029;-63
2024/02/22 02:50:20;;;;;;;2.83;1.20;;;12.20;91.80;;;;;;5009493;28;20037;-62
2024/02/22 02:52:46;;;;;;;4.72;2.40;;;12.20;91.70;;;;;;5009685;28;20022;-63
2024/02/22 02:55:13;;;;;;;3.83;1.88;;;12.20;91.90;;;;;;5009950;28;20398;-63
2024/02/22 02:57:43;;;;;;;5.38;2.20;;;12.20;92.00;;;;;;5013864;28;20117;-63
2024/02/22 03:00:14;;;;;;;4.15;2.28;;;12.20;92.00;;;;;;5009266;28;20033;-63
2024/02/22 03:02:40;;;;;;;2.55;1.55;;;12.20;92.00;;;;;;5013516;28;20087;-62
2024/02/22 03:05:10;;;;;;;3.80;2.00;;;12.30;91.90;;;;;;5017666;28;20026;-62
2024/02/22 03:07:36;;;;;;;5.47;2.47;;;12.30;91.90;;;;;;5016295;28;20435;-63
2024/02/22 03:10:05;;;;;;;3.60;2.17;;;12.30;91.80;;;;;;5011071;28;20086;-62
2024/02/22 03:12:31;;;;;;;5.22;3.50;;;12.30;91.80;;;;;;5040438;28;20029;-63
2024/02/22 03:15:00;;;;;;;5.88;3.45;;;12.30;91.90;;;;;;4997930;28;20476;-62
2024/02/22 03:17:26;;;;;;;3.20;2.40;;;12.30;91.90;;;;;;5009505;28;20096;-63
2024/02/22 03:19:52;;;;;;;4.80;2.50;;;12.30;91.90;;;;;;5007923;28;20099;-62
2024/02/22 03:22:21;;;;;;;4.97;2.28;;;12.30;91.90;;;;;;5012374;28;20029;-66
2024/02/22 03:24:48;;;;;;;4.85;2.88;;;12.30;91.90;;;;;;5007096;28;20438;-66
2024/02/22 03:27:14;;;;;;;3.75;2.65;;;12.30;91.80;;;;;;5011064;28;20464;-66
2024/02/22 03:29:41;;;;;;;4.82;3.05;;;12.40;91.80;;;;;;5010691;28;20492;-66
2024/02/22 03:32:07;;;;;;;5.03;3.15;;;12.40;91.80;;;;;;5008289;28;20037;-66
2024/02/22 03:34:33;;;;;;;5.05;3.33;;;12.40;91.80;;;;;;5010247;28;20026;-66
2024/02/22 03:37:00;;;;;;;12.40;3.90;;;12.40;91.90;;;;;;5011716;28;20034;-66
2024/02/22 03:39:27;;;;;;;8.35;3.53;;;12.40;91.90;;;;;;5010759;28;20556;-66
2024/02/22 03:41:54;;;;;;;5.25;3.22;;;12.40;91.90;;;;;;5010426;28;20065;-66
2024/02/22 03:44:20;;;;;;;8.25;3.90;;;12.40;91.90;;;;;;5017976;28;20045;-66
2024/02/22 03:46:46;;;;;;;4.22;2.55;;;12.40;91.90;;;;;;5029939;28;20033;-66
2024/02/22 03:49:13;;;;;;;2.97;2.28;;;12.40;91.80;;;;;;5030320;28;20045;-66
2024/02/22 03:51:39;;;;;;;5.82;3.13;;;12.50;91.80;;;;;;5028844;28;20041;-66
2024/02/22 03:54:05;;;;;;;5.43;2.75;;;12.50;91.80;;;;;;5027382;28;20029;-66
2024/02/22 03:56:33;;;;;;;8.75;3.70;;;12.50;91.70;;;;;;5033343;28;20037;-66
2024/02/22 03:58:59;;;;;;;6.63;3.70;;;12.50;91.70;;;;;;5032574;28;20374;-66
2024/02/22 04:01:26;;;;;;;7.80;3.25;;;12.50;91.70;;;;;;5025853;28;20021;-66
2024/02/22 04:03:52;;;;;;;6.22;3.90;;;12.50;91.70;;;;;;5032215;28;20436;-66
2024/02/22 04:06:18;;;;;;;6.47;3.95;;;12.50;91.90;;;;;;5027258;28;20095;-66
2024/02/22 04:08:45;;;;;;;10.55;3.85;;;12.50;91.70;;;;;;5027585;28;20572;-66
2024/02/22 04:11:11;;;;;;;5.65;2.90;;;12.60;91.60;;;;;;5023908;28;20512;-66
2024/02/22 04:13:40;;;;;;;8.63;3.35;;;12.60;91.60;;;;;;5059317;28;20084;-66
2024/02/22 04:16:06;;;;;;;7.60;2.55;;;12.60;91.60;;;;;;5021158;28;20544;-66
2024/02/22 04:18:33;;;;;;;4.25;2.45;;;12.60;91.60;;;;;;5029906;28;20104;-66
2024/02/22 04:21:00;;;;;;;7.45;3.83;;;12.60;91.60;;;;;;5029972;28;20400;-66
2024/02/22 04:23:26;;;;;;;9.25;3.88;;;12.60;91.60;;;;;;5035259;28;20100;-66
2024/02/22 04:25:53;;;;;;;9.13;3.63;;;12.50;91.60;;;;;;5026420;28;20029;-66
2024/02/22 04:28:19;;;;;;;5.78;3.42;;;12.50;91.70;;;;;;5031466;28;20381;-66
2024/02/22 04:30:45;;;;;;;10.15;3.85;;;12.50;91.60;;;;;;5038278;28;20041;-66
2024/02/22 04:33:12;;;;;;;9.98;3.92;;;12.50;91.60;;;;;;5027674;28;20050;-66
2024/02/22 04:35:44;;;;;;;8.10;3.33;;;12.50;91.60;;;;;;5030311;28;20029;-66
2024/02/22 04:38:10;;;;;;;7.82;3.33;;;12.50;91.60;;;;;;5029943;28;20117;-66
2024/02/22 04:40:40;;;;;;;7.15;3.67;;;12.60;91.60;;;;;;5029873;28;20102;-66
2024/02/22 04:43:06;;;;;;;12.57;4.40;;;12.50;91.50;;;;;;5034449;28;20022;-66
2024/02/22 04:45:36;;;;;;;7.05;3.55;;;12.50;91.50;;;;;;5034891;28;20099;-66
2024/02/22 04:48:03;;;;;;;6.57;3.33;;;12.50;91.60;;;;;;5039432;28;20503;-63
2024/02/22 04:50:30;;;;;;;8.00;3.53;;;12.50;91.50;;;;;;5035484;28;20025;-65
2024/02/22 04:52:57;;;;;;;10.07;3.88;;;12.60;91.50;;;;;;5031815;28;20071;-66
2024/02/22 04:55:22;;;;;;;6.35;3.85;;;12.60;91.50;;;;;;5038595;28;20057;-66
2024/02/22 04:57:50;;;;;;;5.47;3.03;;;12.60;91.40;;;;;;5041243;28;20496;-66
2024/02/22 05:00:16;;;;;;;7.15;3.95;;;12.60;91.40;;;;;;5032629;28;20087;-66
2024/02/22 05:02:43;;;;;;;6.32;3.33;;;12.60;91.50;;;;;;5032901;28;20455;-66
2024/02/22 05:05:09;;;;;;;10.60;4.57;;;12.50;91.40;;;;;;5033557;28;20029;-66
2024/02/22 05:07:36;;;;;;;5.63;3.33;;;12.60;91.40;;;;;;5030239;28;20041;-66
2024/02/22 05:10:03;;;;;;;9.93;3.13;;;12.60;91.40;;;;;;5037924;28;20021;-63
2024/02/22 05:12:29;;;;;;;12.90;3.08;;;12.50;91.40;;;;;;5029754;28;20033;-65
2024/02/22 05:14:55;;;;;;;5.75;3.17;;;12.60;91.40;;;;;;5038449;28;20381;-66
2024/02/22 05:17:21;;;;;;;10.80;3.08;;;12.50;91.30;;;;;;5041972;28;20040;-66
2024/02/22 05:19:48;;;;;;;6.47;2.97;;;12.50;91.40;;;;;;5033200;28;20013;-66
2024/02/22 05:22:14;;;;;;;6.60;3.30;;;12.50;91.40;;;;;;5036360;28;20056;-66
2024/02/22 05:24:40;;;;;;;4.32;2.53;;;12.40;91.30;;;;;;5037049;28;20025;-66
2024/02/22 05:27:08;;;;;;;5.28;2.67;;;12.50;91.40;;;;;;5032993;28;20040;-66
2024/02/22 05:29:34;;;;;;;3.35;2.25;;;12.50;91.40;;;;;;5035149;28;20026;-66
2024/02/22 05:32:00;;;;;;;3.20;2.15;;;12.50;91.30;;;;;;5039830;28;20500;-66
2024/02/22 05:34:29;;;;;;;8.23;2.58;;;12.50;91.20;;;;;;5041453;28;20029;-66
2024/02/22 05:36:55;;;;;;;5.40;2.80;;;12.40;91.20;;;;;;5031184;28;20065;-66
2024/02/22 05:39:21;;;;;;;7.00;2.47;;;12.40;91.20;;;;;;5042734;28;20036;-66
2024/02/22 05:41:48;;;;;;;3.38;1.73;;;12.40;91.20;;;;;;5026217;28;20118;-66
2024/02/22 05:44:16;;;;;;;7.75;2.33;;;12.30;91.20;;;;;;5028091;28;20037;-62
2024/02/22 05:46:43;;;;;;;6.85;2.22;;;12.20;91.20;;;;;;5037034;28;20044;-63
2024/02/22 05:49:09;;;;;;;5.95;2.28;;;12.20;91.20;;;;;;5041176;28;20037;-62
2024/02/22 05:51:35;;;;;;;5.32;2.53;;;12.20;91.20;;;;;;5038846;28;20481;-62
2024/02/22 05:54:01;;;;;;;5.82;2.75;;;12.10;91.20;;;;;;5035523;28;20116;-63
2024/02/22 05:56:27;;;;;;;8.93;2.55;;;12.10;91.20;;;;;;5040759;28;20079;-63
2024/02/22 05:58:53;;;;;;;10.55;2.90;;;12.10;91.20;;;;;;5038718;28;20133;-63
2024/02/22 06:01:19;;;;;;;5.50;2.00;;;12.20;91.20;;;;;;5039952;28;20140;-63
2024/02/22 06:03:45;;;;;;;8.95;3.25;;;12.20;91.00;;;;;;5037383;28;20375;-63
2024/02/22 06:06:11;;;;;;;7.28;2.85;;;12.20;91.00;;;;;;5035431;28;20029;-62
2024/02/22 06:08:42;;;;;;;3.85;2.15;;;12.10;90.90;;;;;;5024726;28;20030;-62
2024/02/22 06:11:08;;;;;;;3.03;1.77;;;12.10;90.90;;;;;;5033032;28;20029;-63
2024/02/22 06:13:34;;;;;;;3.60;1.70;;;12.20;90.90;;;;;;5032555;28;20107;-62
2024/02/22 06:15:59;;;;;;;8.30;2.22;;;12.20;90.90;;;;;;5018321;28;20030;-62
2024/02/22 06:18:25;;;;;;;4.68;1.98;;;12.20;90.80;;;;;;5030808;28;20033;-63
2024/02/22 06:20:51;;;;;;;5.03;2.00;;;12.20;90.80;;;;;;5031686;28;20029;-62
2024/02/22 06:23:17;;;;;;;5.85;2.08;;;12.20;90.80;;;;;;5033237;28;20075;-63
2024/02/22 06:25:42;;;;;;;8.10;3.28;;;12.30;90.80;;;;;;5036285;28;20384;-63
2024/02/22 06:28:09;;;;;;;5.47;2.00;;;12.30;90.80;;;;;;5029940;28;20034;-62
2024/02/22 06:30:35;;;;;;;6.88;2.53;;;12.30;90.80;;;;;;5031857;28;20017;-62
2024/02/22 06:33:01;;;;;;;6.30;2.78;;;12.20;90.70;;;;;;5031012;28;20040;-63
2024/02/22 06:35:26;;;;;;;6.53;2.50;;;12.20;90.80;;;;;;5031273;28;20292;-63
2024/02/22 06:37:52;;;;;;;4.00;2.70;;;12.20;90.80;;;;;;5026507;28;20033;-62
2024/02/22 06:40:18;;;;;;;6.22;3.42;;;12.20;90.80;;;;;;5024833;28;20037;-62
2024/02/22 06:42:43;;;;;;;6.57;3.22;;;12.20;90.80;;;;;;5029687;28;20636;-63
2024/02/22 06:45:09;;;;;;;8.65;3.47;;;12.20;90.80;;;;;;5028776;28;20045;-63
2024/02/22 06:47:36;;;;;;;7.00;3.58;;;12.20;90.80;;;;;;5026975;28;20025;-62
2024/02/22 06:50:03;;;;;;;7.40;2.63;;;12.20;90.80;;;;;;5035909;28;20057;-62
2024/02/22 06:52:30;;;;;;;6.25;2.58;;;12.20;90.80;;;;;;5031200;28;20100;-66
2024/02/22 06:54:56;;;;;;;5.00;2.53;;;12.20;90.80;;;;;;5030795;28;20033;-66
2024/02/22 06:57:22;;;;;;;9.07;2.15;;;12.20;90.80;;;;;;5032057;28;20094;-66
2024/02/22 06:59:48;;;;;;;5.32;2.38;;;12.20;90.80;;;;;;5023609;28;20377;-66
2024/02/22 07:02:15;;;;;;;4.60;2.50;;;12.20;90.80;;;;;;5029150;28;20029;-63
2024/02/22 07:04:42;;;;;;;5.32;2.05;;;12.20;90.80;;;;;;5025876;28;20038;-62
2024/02/22 07:07:08;;;;;;;3.60;2.33;;;12.30;90.80;;;;;;5035974;28;20087;-66
2024/02/22 07:09:34;;;;;;;4.97;2.50;;;12.30;90.70;;;;;;5034183;28;20037;-66
2024/02/22 07:12:01;;;;;;;5.75;2.10;;;12.30;90.70;;;;;;5025584;28;20108;-66
2024/02/22 07:14:27;;;;;;;8.05;2.92;;;12.30;90.80;;;;;;5021817;28;20489;-66
2024/02/22 07:16:52;;;;;;;3.92;2.60;;;12.30;90.70;;;;;;5027520;28;20056;-62
2024/02/22 07:19:18;;;;;;;4.78;2.53;;;12.30;90.70;;;;;;5061795;28;20315;-62
2024/02/22 07:21:44;;;;;;;3.92;1.92;;;12.40;90.70;;;;;;5029524;28;20041;-62
2024/02/22 07:24:11;;;;;;;5.55;2.47;;;12.40;90.60;;;;;;5028952;28;20068;-63
2024/02/22 07:26:38;;;;;;;2.35;1.73;;;12.40;90.60;;;;;;5028812;28;20465;-63
2024/02/22 07:29:05;;;;;;;3.30;1.98;;;12.50;90.60;;;;;;5028318;28;20025;-62
2024/02/22 07:31:30;;;;;;;4.65;1.83;;;12.50;90.60;;;;;;5033165;28;20028;-66
2024/02/22 07:33:56;;;;;;;4.18;2.55;;;12.50;90.50;;;;;;5029277;28;20029;-66
2024/02/22 07:36:22;;;;;;;4.07;1.98;;;12.60;90.50;;;;;;5032299;28;20396;-66
2024/02/22 07:38:47;;;;;;;4.38;2.50;;;12.50;90.40;;;;;;5031335;28;20031;-66
2024/02/22 07:41:15;;;;;;;4.07;2.28;;;12.50;90.50;;;;;;5030819;28;20038;-66
2024/02/22 07:43:45;;;;;;;3.58;2.20;;;12.50;90.50;;;;;;5030488;28;20465;-66
2024/02/22 07:46:12;;;;;;;5.68;2.05;;;12.50;90.50;;;;;;5030321;28;20124;-66
2024/02/22 07:48:41;;;;;;;5.53;2.92;;;12.60;90.50;;;;;;5028369;28;20510;-66
2024/02/22 07:51:07;;;;;;;4.38;1.52;;;12.60;90.50;;;;;;5030787;28;20044;-66
2024/02/22 07:53:34;;;;;;;5.13;2.53;;;12.50;90.40;;;;;;5029726;28;20495;-66
2024/02/22 07:56:07;;;;;;;3.72;2.05;;;12.50;90.50;;;;;;5030518;28;20041;-63
2024/02/22 07:58:56;;;;;;;4.70;2.90;;;12.50;90.50;;;;;;5033348;28;20040;-66
2024/02/22 08:01:22;;;;;;;4.55;2.15;;;12.50;90.50;;;;;;5027438;28;20026;-62
2024/02/22 08:03:49;;;;;;;4.53;2.50;;;12.40;90.50;;;;;;5027449;28;20026;-62
2024/02/22 08:06:15;;;;;;;6.68;2.42;;;12.40;90.60;;;;;;5028739;28;20116;-62
2024/02/22 08:08:41;;;;;;;7.20;2.78;;;12.40;90.60;;;;;;5031247;28;20050;-63
2024/02/22 08:11:08;;;;;;;2.50;2.08;;;12.40;90.50;;;;;;5028970;28;20057;-63
2024/02/22 08:13:34;;;;;;;5.50;2.90;;;12.40;90.60;;;;;;5030018;28;20032;-62
2024/02/22 08:16:05;;;;;;;4.72;2.60;;;12.40;90.50;;;;;;5029754;28;20445;-63
2024/02/22 08:18:32;;;;;;;3.50;1.92;;;12.40;90.60;;;;;;5029204;28;20038;-66
2024/02/22 08:20:58;;;;;;;3.97;2.20;;;12.40;90.70;;;;;;5025304;28;20029;-66
2024/02/22 08:23:23;;;;;;;3.08;2.28;;;12.40;90.60;;;;;;5056785;28;20044;-66
2024/02/22 08:25:49;;;;;;;3.75;2.30;;;12.50;90.60;;;;;;5031761;28;20040;-66
2024/02/22 08:28:15;;;;;;;3.17;1.88;;;12.50;90.50;;;;;;5029574;28;20072;-66
2024/02/22 08:30:41;;;;;;;13.07;3.40;;;12.50;90.50;;;;;;5036305;28;20052;-66
2024/02/22 08:33:06;;;;;;;3.60;2.15;;;12.50;90.50;;;;;;5030282;28;20049;-66
2024/02/22 08:35:32;;;;;;;4.90;2.10;;;12.60;90.40;;;;;;5032761;28;20432;-66
2024/02/22 08:37:58;;;;;;;3.35;2.00;;;12.60;90.40;;;;;;5026796;28;20033;-67
2024/02/22 08:40:24;;;;;;;3.15;2.22;;;12.60;90.30;;;;;;5026135;28;20504;-66
2024/02/22 08:42:50;;;;;;;2.33;1.70;;;12.60;90.30;;;;;;5043213;28;20036;-67
2024/02/22 08:45:17;;;;;;;2.63;1.83;;;12.60;90.30;;;;;;5038881;28;20045;-67
2024/02/22 08:47:43;;;;;;;1.98;1.30;;;12.70;90.30;;;;;;5038504;28;20112;-69
2024/02/22 08:50:09;;;;;;;2.20;1.20;;;12.70;90.20;;;;;;5034807;28;20026;-66
2024/02/22 08:52:41;;;;;;;2.35;1.27;;;12.80;90.20;;;;;;5035760;28;20393;-67
2024/02/22 08:55:09;;;;;;;1.83;1.33;;;12.80;90.10;;;;;;5030311;28;20037;-64
2024/02/22 08:57:35;;;;;;;1.55;1.17;;;12.90;90.10;;;;;;5026999;28;20049;-63
2024/02/22 09:00:00;;;;;;;1.05;0.95;;;12.90;90.10;;;;;;5028222;28;20508;-64
2024/02/22 09:02:26;;;;;;;2.03;1.25;;;13.00;90.10;;;;;;5031375;28;20090;-64
2024/02/22 09:04:52;;;;;;;1.80;1.00;;;13.10;90.00;;;;;;5038097;28;20033;-63
2024/02/22 09:07:17;;;;;;;1.20;1.10;;;13.10;90.00;;;;;;5040210;28;20021;-64
2024/02/22 09:09:45;;;;;;;1.50;1.20;;;13.20;89.80;;;;;;5033593;28;20033;-68
2024/02/22 09:12:12;;;;;;;1.88;1.60;;;13.20;89.90;;;;;;5017439;28;20040;-65
2024/02/22 09:14:38;;;;;;;3.40;1.50;;;13.20;89.90;;;;;;5066120;28;20420;-66
2024/02/22 09:17:04;;;;;;;1.55;1.45;;;13.20;89.40;;;;;;5016853;28;20049;-63
2024/02/22 09:19:30;;;;;;;1.60;1.45;;;13.20;89.50;;;;;;5029245;28;20041;-63
2024/02/22 09:21:59;;;;;;;1.73;1.20;;;13.10;89.50;;;;;;5036235;28;20944;-63
2024/02/22 09:24:25;;;;;;;2.13;1.30;;;13.10;89.60;;;;;;5026650;28;20529;-63
2024/02/22 09:26:51;;;;;;;7.07;1.67;;;13.10;89.60;;;;;;5026507;28;20168;-66
2024/02/22 09:29:16;;;;;;;1.38;1.15;;;13.10;89.50;;;;;;5020542;28;20113;-66
2024/02/22 09:31:42;;;;;;;4.53;1.40;;;13.10;89.60;;;;;;5036576;28;20029;-66
2024/02/22 09:34:08;;;;;;;1.83;1.33;;;13.10;89.60;;;;;;5022132;28;20052;-66
2024/02/22 09:36:33;;;;;;;2.08;1.42;;;13.20;89.60;;;;;;5028325;28;20030;-66
2024/02/22 09:38:59;;;;;;;1.55;1.42;;;13.30;89.30;;;;;;5026877;28;20051;-66
2024/02/22 09:41:26;;;;;;;1.48;1.20;;;13.40;89.10;;;;;;5028643;28;20083;-66
2024/02/22 09:43:52;;;;;;;1.30;1.20;;;13.50;89.00;;;;;;5037166;28;20059;-63
2024/02/22 09:46:18;;;;;;;2.88;1.67;;;13.50;88.80;;;;;;5020415;28;20049;-66
2024/02/22 09:48:44;;;;;;;1.20;0.93;;;13.50;88.80;;;;;;5037359;28;20029;-66
2024/02/22 09:51:12;;;;;;;1.58;1.27;;;13.50;88.80;;;;;;5029888;28;20102;-66
2024/02/22 09:53:37;;;;;;;1.25;1.05;;;13.60;88.90;;;;;;5031983;28;20033;-66
2024/02/22 09:56:04;;;;;;;1.08;0.90;;;13.60;88.70;;;;;;5032071;28;20028;-66
2024/02/22 09:58:30;;;;;;;1.33;1.02;;;13.60;88.70;;;;;;5038585;28;20041;-66
2024/02/22 10:00:56;;;;;;;1.35;1.10;;;13.50;88.70;;;;;;5024733;28;20022;-66
2024/02/22 10:03:34;;;;;;;0.88;0.73;;;13.60;88.80;;;;;;5028407;28;20397;-66
2024/02/22 10:06:01;;;;;;;2.33;0.98;;;13.60;88.70;;;;;;5030664;28;20050;-66
2024/02/22 10:08:26;;;;;;;1.35;0.95;;;13.50;88.70;;;;;;5028071;28;20037;-66
2024/02/22 10:11:03;;;;;;;1.25;1.02;;;13.50;88.70;;;;;;5027567;28;20489;-66
2024/02/22 10:13:29;;;;;;;1.10;0.93;;;13.50;88.60;;;;;;5029834;28;20036;-66
2024/02/22 10:15:55;;;;;;;1.20;0.90;;;13.60;88.80;;;;;;5021261;28;20037;-66
2024/02/22 10:18:25;;;;;;;1.00;0.90;;;13.60;88.70;;;;;;5027062;28;20033;-66
2024/02/22 10:20:51;;;;;;;0.80;0.80;;;13.70;88.70;;;;;;5020062;28;20025;-66
2024/02/22 10:23:18;;;;;;;0.98;0.80;;;13.70;88.50;;;;;;5021827;28;20033;-66
2024/02/22 10:25:45;;;;;;;0.88;0.85;;;13.70;88.40;;;;;;5032562;28;20091;-66
2024/02/22 10:28:16;;;;;;;0.40;0.40;;;13.70;88.50;;;;;;5027861;28;20121;-66
2024/02/22 10:30:44;;;;;;;0.68;0.50;;;13.70;88.40;;;;;;5044279;28;20024;-66
2024/02/22 10:33:10;;;;;;;1.63;0.90;;;13.60;88.10;;;;;;5030856;28;20364;-63
2024/02/22 10:35:40;;;;;;;0.57;0.52;;;13.50;88.20;;;;;;5026259;28;20030;-63
2024/02/22 10:38:08;;;;;;;0.70;0.70;;;13.40;88.50;;;;;;5034512;28;20388;-63
2024/02/22 10:40:35;;;;;;;0.73;0.70;;;13.30;88.60;;;;;;5037924;28;20038;-63
2024/02/22 10:43:04;;;;;;;0.70;0.60;;;13.20;88.80;;;;;;5020788;28;20026;-63
2024/02/22 10:45:31;;;;;;;0.93;0.80;;;13.20;88.80;;;;;;5026480;28;20052;-63
2024/02/22 10:48:02;;;;;;;0.80;0.80;;;13.20;88.90;;;;;;5022949;28;20036;-63
2024/02/22 10:50:30;;;;;;;1.10;1.00;;;13.20;89.00;;;;;;5031430;28;20071;-63
2024/02/22 10:53:00;;;;;;;11.65;1.23;;;13.20;89.00;;;;;;5018887;28;20033;-63
2024/02/22 10:55:27;;;;;;;1.20;0.82;;;13.20;88.90;;;;;;5027742;28;20057;-63
2024/02/22 10:57:55;;;;;;;1.13;1.02;;;13.10;89.00;;;;;;5012841;28;20116;-63
2024/02/22 11:00:21;;;;;;;0.52;0.52;;;13.20;89.10;;;;;;5029058;28;20021;-66
2024/02/22 11:02:48;;;;;;;0.77;0.75;;;13.10;89.20;;;;;;5036558;28;20044;-66
2024/02/22 11:05:14;;;;;;;1.77;0.80;;;13.10;89.30;;;;;;5030641;28;20045;-66
2024/02/22 11:07:51;;;;;;;1.23;0.85;;;13.10;89.30;;;;;;5033354;28;20392;-66
2024/02/22 11:10:17;;;;;;;0.52;0.52;;;13.10;89.40;;;;;;5031722;28;20417;-66
2024/02/22 11:12:44;;;;;;;0.55;0.50;;;13.10;89.50;;;;;;5023855;28;20389;-66
2024/02/22 11:15:10;;;;;;;0.80;0.80;;;13.20;89.50;;;;;;5028299;28;20021;-66
2024/02/22 11:17:37;;;;;;;1.02;0.60;;;13.20;89.40;;;;;;5029759;28;20037;-63
2024/02/22 11:20:09;;;;;;;0.82;0.75;;;13.20;89.40;;;;;;5029242;28;20035;-63
2024/02/22 11:22:36;;;;;;;0.85;0.50;;;13.30;89.40;;;;;;5024438;28;20690;-63
2024/02/22 11:25:06;;;;;;;0.50;0.43;;;13.20;89.40;;;;;;5022745;28;20464;-63
2024/02/22 11:27:32;;;;;;;0.65;0.65;;;13.30;89.50;;;;;;5026264;28;20029;-64
2024/02/22 11:29:59;;;;;;;1.73;0.60;;;13.30;89.60;;;;;;5013166;28;20127;-63
2024/02/22 11:32:25;;;;;;;1.15;0.82;;;13.30;89.50;;;;;;5037598;28;20036;-63
2024/02/22 11:34:55;;;;;;;0.57;0.50;;;13.40;89.60;;;;;;5034839;28;20061;-63
2024/02/22 11:37:21;;;;;;;0.47;0.47;;;13.40;89.60;;;;;;5027925;28;20021;-63
2024/02/22 11:40:00;;;;;;;0.50;0.40;;;13.40;89.50;;;;;;5032899;28;20072;-63
2024/02/22 11:42:26;;;;;;;0.60;0.60;;;13.40;89.50;;;;;;5018965;28;20056;-66
2024/02/22 11:44:53;;;;;;;0.70;0.70;;;13.40;89.50;;;;;;5028844;28;20058;-66
2024/02/22 11:47:19;;;;;;;0.77;0.70;;;13.40;89.60;;;;;;5024419;28;20109;-66
2024/02/22 11:49:45;;;;;;;0.40;0.40;;;13.40;89.60;;;;;;5031303;28;20053;-66
2024/02/22 11:52:12;;;;;;;0.32;0.32;;;13.50;89.60;;;;;;5024080;28;20026;-66
2024/02/22 11:54:40;;;;;;;0.60;0.40;;;13.50;89.60;;;;;;5027175;28;20096;-66
2024/02/22 11:57:08;;;;;;;0.52;0.52;;;13.50;89.60;;;;;;5029357;28;20042;-66
2024/02/22 11:59:34;;;;;;;0.50;0.50;;;13.50;89.60;;;;;;5025585;28;20100;-66
2024/02/22 12:02:07;;;;;;;0.63;0.52;;;13.50;89.60;;;;;;5008751;28;20029;-66
2024/02/22 12:04:33;;;;;;;0.50;0.50;;;13.50;89.60;;;;;;5021319;28;20437;-66
2024/02/22 12:07:01;;;;;;;1.50;0.60;;;13.50;89.60;;;;;;5024290;28;20026;-66
2024/02/22 12:09:28;;;;;;;1.25;0.70;;;13.50;89.60;;;;;;5030739;28;20047;-66
2024/02/22 12:11:54;;;;;;;0.75;0.63;;;13.50;89.70;;;;;;5026261;28;20061;-66
2024/02/22 12:14:20;;;;;;;1.25;0.85;;;13.60;89.70;;;;;;5025882;28;20057;-66
2024/02/22 12:16:46;;;;;;;0.70;0.65;;;13.60;89.60;;;;;;5025364;28;20026;-66
2024/02/22 12:19:19;;;;;;;0.75;0.75;;;13.60;89.70;;;;;;5028845;28;20028;-66
2024/02/22 12:21:48;;;;;;;0.68;0.65;;;13.60;89.70;;;;;;5029962;28;20384;-66
2024/02/22 12:24:14;;;;;;;0.63;0.50;;;13.60;89.70;;;;;;5030901;28;20021;-66
2024/02/22 12:26:40;;;;;;;0.68;0.68;;;13.60;89.80;;;;;;5030819;28;20431;-66
2024/02/22 12:29:07;;;;;;;0.45;0.45;;;13.60;89.90;;;;;;5033025;28;20006;-66
2024/02/22 12:31:33;;;;;;;1.25;0.60;;;13.60;90.00;;;;;;5030422;28;20068;-66
2024/02/22 12:33:59;;;;;;;0.45;0.45;;;13.60;90.00;;;;;;5029276;28;20021;-66
2024/02/22 12:36:27;;;;;;;0.60;0.60;;;13.60;90.00;;;;;;5032282;28;20374;-66
2024/02/22 12:38:53;;;;;;;0.77;0.40;;;13.60;90.00;;;;;;5044075;28;20088;-66
2024/02/22 12:41:19;;;;;;;0.65;0.65;;;13.60;90.00;;;;;;5031969;28;20437;-66
2024/02/22 12:43:47;;;;;;;0.65;0.65;;;13.60;90.10;;;;;;5023914;28;20060;-66